Time;durP1;ratioP1;P1;durP2;ratioP2;P2;SDS_P1;SDS_P2;PMS_P1;PMS_P2;Temp;Humidity;BMP_temperature;BMP_pressure;BME280_temperature;BME280_humidity;BME280_pressure;Samples;Min_cycle;Max_cycle;Signal;HPM_P1;HPM_P2
2022/12/31 00:05:01;;;;;;;2.13;0.95;;;12.40;99.90;;;;;;20914726;28;20041;-87
2022/12/31 00:15:01;;;;;;;0.70;0.47;;;12.50;99.90;;;;;;20800403;28;20053;-86
2022/12/31 00:25:03;;;;;;;1.27;0.70;;;12.80;99.90;;;;;;20730240;28;20085;-86
2022/12/31 00:35:10;;;;;;;1.10;0.60;;;12.40;99.90;;;;;;20789129;28;20112;-87
2022/12/31 00:45:11;;;;;;;2.97;0.70;;;12.30;99.90;;;;;;20683999;28;20038;-87
2022/12/31 00:55:15;;;;;;;2.58;0.80;;;11.70;99.90;;;;;;20690819;28;20049;-87
2022/12/31 01:05:17;;;;;;;6.32;1.05;;;11.30;99.90;;;;;;20725785;28;20038;-87
2022/12/31 01:15:18;;;;;;;1.23;0.80;;;10.90;99.90;;;;;;20773917;28;20526;-86
2022/12/31 01:25:20;;;;;;;2.53;1.10;;;10.90;99.90;;;;;;20807411;28;20116;-85
2022/12/31 01:35:21;;;;;;;6.07;1.20;;;10.60;99.90;;;;;;20806572;28;20489;-85
2022/12/31 01:45:22;;;;;;;3.33;1.17;;;10.60;99.90;;;;;;20789537;28;20424;-86
2022/12/31 01:55:46;;;;;;;1.98;1.20;;;10.60;99.90;;;;;;20858012;28;20033;-86
2022/12/31 02:06:27;;;;;;;2.05;1.08;;;10.60;99.90;;;;;;20911493;28;20581;-86
2022/12/31 02:16:37;;;;;;;1.88;1.10;;;10.80;99.90;;;;;;20881715;28;20493;-85
2022/12/31 02:26:59;;;;;;;2.88;1.30;;;10.80;99.90;;;;;;20909762;28;20033;-85
2022/12/31 02:37:06;;;;;;;3.40;1.58;;;10.80;99.90;;;;;;20904710;28;20044;-85
2022/12/31 02:47:07;;;;;;;2.20;1.42;;;10.80;99.90;;;;;;20891993;28;20041;-85
2022/12/31 02:57:29;;;;;;;2.47;1.23;;;10.70;99.90;;;;;;20907231;28;20124;-85
2022/12/31 03:07:31;;;;;;;;;;;10.60;99.90;;;;;;20816583;28;20049;-86
2022/12/31 03:17:34;;;;;;;3.57;1.67;;;10.60;99.90;;;;;;20798268;28;19944;-85
2022/12/31 03:27:36;;;;;;;5.15;1.17;;;10.60;99.90;;;;;;20815254;28;20037;-86
2022/12/31 03:37:38;;;;;;;2.47;1.20;;;10.60;99.90;;;;;;20885839;28;20041;-86
2022/12/31 03:47:39;;;;;;;4.10;1.38;;;10.60;99.90;;;;;;20903761;28;20087;-86
2022/12/31 03:57:40;;;;;;;6.23;1.27;;;10.60;99.90;;;;;;20904244;28;20037;-85
2022/12/31 04:07:41;;;;;;;4.87;1.30;;;10.60;99.90;;;;;;20903532;28;20406;-85
2022/12/31 04:17:42;;;;;;;1.90;1.03;;;10.60;99.90;;;;;;20877763;28;20379;-85
2022/12/31 04:27:43;;;;;;;2.73;1.13;;;10.60;99.90;;;;;;20877619;28;20037;-86
2022/12/31 04:37:44;;;;;;;;;;;10.50;99.90;;;;;;20858869;28;20037;-86
2022/12/31 04:47:46;;;;;;;5.40;1.37;;;10.40;99.90;;;;;;20897720;28;19915;-86
2022/12/31 04:57:47;;;;;;;2.28;1.23;;;10.40;99.90;;;;;;20742122;28;20092;-85
2022/12/31 05:07:48;;;;;;;8.73;1.57;;;10.40;99.90;;;;;;20834946;22;20039;-83
2022/12/31 05:17:48;;;;;;;2.53;1.13;;;10.40;99.90;;;;;;21252776;27;20092;-81
2022/12/31 05:27:52;;;;;;;7.93;1.60;;;10.30;99.90;;;;;;21253841;27;20489;-83
2022/12/31 05:37:53;;;;;;;2.53;1.50;;;10.20;99.90;;;;;;21165490;28;20039;-82
2022/12/31 05:47:54;;;;;;;3.57;1.67;;;10.20;99.90;;;;;;21163777;28;20038;-82
2022/12/31 05:57:55;;;;;;;6.83;2.27;;;10.20;99.90;;;;;;21163825;28;20040;-82
2022/12/31 06:07:56;;;;;;;3.83;2.23;;;10.10;99.90;;;;;;21185213;27;20040;-83
2022/12/31 06:17:58;;;;;;;3.33;2.10;;;10.00;99.90;;;;;;20987349;28;20132;-82
2022/12/31 06:27:59;;;;;;;3.00;1.50;;;9.90;99.90;;;;;;20988419;28;20557;-82
2022/12/31 06:37:59;;;;;;;3.70;2.17;;;9.80;99.90;;;;;;21011864;28;20037;-81
2022/12/31 06:48:01;;;;;;;3.90;2.10;;;9.60;99.90;;;;;;21143877;28;20123;-82
2022/12/31 06:58:03;;;;;;;6.57;2.50;;;9.50;99.90;;;;;;21185365;28;20039;-80
2022/12/31 07:08:26;;;;;;;3.22;2.33;;;9.60;99.90;;;;;;21190892;27;20063;-80
2022/12/31 07:18:36;;;;;;;2.35;1.80;;;9.60;99.90;;;;;;21195417;28;20036;-82
2022/12/31 07:28:52;;;;;;;3.33;2.27;;;9.50;99.90;;;;;;21196427;28;20119;-79
2022/12/31 07:39:00;;;;;;;2.33;2.00;;;9.50;99.90;;;;;;21190332;28;20043;-80
2022/12/31 07:49:02;;;;;;;2.75;1.80;;;9.40;99.90;;;;;;21213748;28;20062;-79
2022/12/31 07:59:40;;;;;;;3.08;1.73;;;9.30;99.90;;;;;;21189101;28;20035;-79
2022/12/31 08:09:57;;;;;;;2.58;1.30;;;9.10;99.90;;;;;;21141806;28;20413;-80
2022/12/31 08:19:58;;;;;;;2.13;1.60;;;9.90;99.90;;;;;;21138068;28;20136;-79
2022/12/31 08:30:17;;;;;;;3.55;2.10;;;10.30;99.90;;;;;;21190306;28;20487;-79
2022/12/31 08:40:34;;;;;;;3.25;1.80;;;11.10;99.90;;;;;;21207195;28;20036;-77
2022/12/31 08:50:36;;;;;;;3.70;1.35;;;12.10;99.90;;;;;;21180008;28;20031;-80
2022/12/31 09:00:37;;;;;;;2.73;1.60;;;12.00;99.90;;;;;;21033807;28;20207;-80
2022/12/31 09:11:16;;;;;;;3.45;1.50;;;13.30;99.90;;;;;;21029011;28;20278;-79
2022/12/31 09:21:17;;;;;;;2.72;1.40;;;13.70;99.90;;;;;;21018029;28;20040;-78
2022/12/31 09:31:31;;;;;;;4.10;1.50;;;13.40;99.90;;;;;;21171082;28;20511;-80
2022/12/31 09:42:00;;;;;;;5.72;1.45;;;13.90;99.90;;;;;;21182112;28;20039;-80
2022/12/31 09:52:34;;;;;;;3.22;1.30;;;13.70;99.90;;;;;;21151237;27;20028;-80
2022/12/31 10:02:42;;;;;;;1.88;1.30;;;13.70;99.90;;;;;;21150318;28;20171;-80
2022/12/31 10:13:25;;;;;;;6.40;1.38;;;13.20;99.90;;;;;;21167817;28;20048;-80
2022/12/31 10:23:49;;;;;;;2.92;1.63;;;13.50;99.90;;;;;;21151374;28;20044;-80
2022/12/31 10:34:11;;;;;;;3.13;1.88;;;13.60;99.90;;;;;;21144773;28;20500;-79
2022/12/31 10:44:46;;;;;;;3.47;2.05;;;13.30;99.90;;;;;;21191531;27;20138;-80
2022/12/31 10:55:05;;;;;;;9.25;1.95;;;13.70;99.90;;;;;;21153554;28;20043;-78
2022/12/31 11:05:44;;;;;;;6.35;2.08;;;14.50;99.90;;;;;;21152256;28;20060;-78
2022/12/31 11:15:52;;;;;;;4.23;1.90;;;14.10;99.90;;;;;;20975339;22;20434;-76
2022/12/31 11:26:18;;;;;;;3.08;1.98;;;14.90;99.90;;;;;;20916387;28;20087;-75
2022/12/31 11:36:40;;;;;;;3.38;1.60;;;14.10;99.90;;;;;;20904288;28;20075;-74
2022/12/31 11:47:14;;;;;;;6.07;2.17;;;13.90;99.90;;;;;;20920990;28;20457;-74
2022/12/31 11:57:32;;;;;;;2.33;1.40;;;13.80;99.90;;;;;;20926656;28;20040;-73
2022/12/31 12:07:34;;;;;;;7.25;1.50;;;13.50;99.90;;;;;;20937378;28;20048;-73
2022/12/31 12:17:35;;;;;;;2.60;1.40;;;13.30;99.90;;;;;;20920749;28;20491;-74
2022/12/31 12:27:36;;;;;;;3.03;1.63;;;13.30;99.90;;;;;;20933934;28;20076;-74
2022/12/31 12:37:37;;;;;;;2.63;1.10;;;13.50;99.90;;;;;;20896123;28;20084;-74
2022/12/31 12:47:41;;;;;;;2.17;1.05;;;13.50;99.90;;;;;;20896509;28;20494;-74
2022/12/31 12:58:03;;;;;;;2.63;1.02;;;13.60;99.90;;;;;;20886353;28;20086;-74
2022/12/31 13:08:31;;;;;;;2.03;1.00;;;13.40;99.90;;;;;;20909400;28;20115;-74
2022/12/31 13:18:39;;;;;;;2.53;1.02;;;13.50;99.90;;;;;;20916082;28;20041;-75
2022/12/31 13:28:42;;;;;;;1.40;0.98;;;13.40;99.90;;;;;;20942907;28;20115;-74
2022/12/31 13:38:47;;;;;;;2.13;1.02;;;13.30;99.90;;;;;;20954400;28;20063;-74
2022/12/31 13:49:13;;;;;;;1.60;0.95;;;13.30;99.90;;;;;;20950374;28;20041;-74
2022/12/31 13:59:21;;;;;;;1.40;0.93;;;13.20;99.90;;;;;;20937341;28;20033;-74
2022/12/31 14:09:25;;;;;;;5.65;1.10;;;13.10;99.90;;;;;;20947839;28;20044;-75
2022/12/31 14:19:51;;;;;;;1.80;1.20;;;13.00;99.90;;;;;;20945068;28;20509;-74
2022/12/31 14:29:55;;;;;;;2.97;1.75;;;12.80;99.90;;;;;;20936934;28;20080;-75
2022/12/31 14:40:14;;;;;;;4.18;2.70;;;12.50;99.90;;;;;;20867644;28;20048;-73
2022/12/31 14:50:29;;;;;;;5.28;3.05;;;12.40;99.90;;;;;;20859955;28;20514;-74
2022/12/31 15:00:38;;;;;;;7.47;4.35;;;12.30;99.90;;;;;;20910340;28;20041;-75
2022/12/31 15:10:58;;;;;;;7.05;2.20;;;12.30;99.90;;;;;;20908097;28;20044;-75
2022/12/31 15:21:45;;;;;;;7.38;2.55;;;12.10;99.90;;;;;;20913819;28;20033;-74
2022/12/31 15:31:47;;;;;;;6.93;2.67;;;11.70;99.90;;;;;;20887390;28;20106;-75
2022/12/31 15:41:49;;;;;;;10.23;2.83;;;11.70;99.90;;;;;;20900687;28;20102;-75
2022/12/31 15:52:34;;;;;;;5.93;3.35;;;11.30;99.90;;;;;;20921769;28;20510;-75
2022/12/31 16:02:41;;;;;;;3.75;2.25;;;11.10;99.90;;;;;;20830255;28;20144;-75
2022/12/31 16:12:44;;;;;;;2.42;1.40;;;11.20;99.90;;;;;;20907012;28;20577;-74
2022/12/31 16:22:55;;;;;;;4.85;1.88;;;10.90;99.90;;;;;;20948038;28;20111;-75
2022/12/31 16:33:01;;;;;;;2.65;1.80;;;10.70;99.90;;;;;;20905639;28;20033;-75
2022/12/31 16:43:03;;;;;;;2.88;1.80;;;10.60;99.90;;;;;;20890623;28;20131;-75
2022/12/31 16:53:05;;;;;;;;;;;10.60;99.90;;;;;;20902876;28;20037;-75
2022/12/31 17:03:22;;;;;;;5.50;2.43;;;10.80;99.90;;;;;;20902351;28;20382;-75
2022/12/31 17:13:28;;;;;;;4.22;2.67;;;10.70;99.90;;;;;;21030376;22;20079;-77
2022/12/31 17:23:33;;;;;;;5.20;2.97;;;10.50;99.90;;;;;;21186697;27;20046;-78
2022/12/31 17:33:33;;;;;;;4.93;2.67;;;10.40;99.90;;;;;;21234366;27;20035;-77
2022/12/31 17:43:36;;;;;;;4.53;2.25;;;10.40;99.90;;;;;;21249867;27;20162;-77
2022/12/31 17:53:38;;;;;;;4.20;2.67;;;10.50;99.90;;;;;;21235159;27;20038;-79
2022/12/31 18:03:39;;;;;;;5.50;3.20;;;10.40;99.90;;;;;;21259259;27;20035;-79
2022/12/31 18:13:41;;;;;;;7.40;2.97;;;10.20;99.90;;;;;;21241999;27;20077;-78
2022/12/31 18:23:46;;;;;;;5.63;2.80;;;10.10;99.90;;;;;;21252717;27;20504;-78
2022/12/31 18:33:49;;;;;;;6.80;3.10;;;10.10;99.90;;;;;;21233356;27;20043;-79
2022/12/31 18:43:52;;;;;;;4.57;2.97;;;10.10;99.90;;;;;;21254338;27;20031;-80
2022/12/31 18:53:54;;;;;;;3.50;2.42;;;9.90;99.90;;;;;;21258067;27;20035;-79
2022/12/31 19:03:58;;;;;;;6.80;2.88;;;9.80;99.90;;;;;;21258768;27;20034;-79
2022/12/31 19:14:01;;;;;;;8.10;2.95;;;9.90;99.90;;;;;;21240687;27;20051;-79
2022/12/31 19:24:23;;;;;;;10.55;4.45;;;9.80;99.90;;;;;;21259473;27;20027;-79
2022/12/31 19:34:24;;;;;;;8.00;3.47;;;9.70;99.90;;;;;;21240916;27;20042;-80
2022/12/31 19:44:25;;;;;;;6.57;2.70;;;9.40;99.90;;;;;;21259332;27;20039;-78
2022/12/31 19:54:26;;;;;;;5.97;2.67;;;9.40;99.90;;;;;;21257807;27;20111;-78
2022/12/31 20:04:26;;;;;;;6.40;3.67;;;9.50;99.90;;;;;;21263078;28;20456;-79
2022/12/31 20:14:29;;;;;;;4.05;2.50;;;9.40;99.90;;;;;;21255793;27;20054;-78
2022/12/31 20:24:30;;;;;;;5.18;2.30;;;9.50;99.90;;;;;;21266885;27;20031;-78
2022/12/31 20:34:33;;;;;;;3.83;2.50;;;9.40;99.90;;;;;;21255686;27;20405;-78
2022/12/31 20:44:33;;;;;;;4.03;2.58;;;9.30;99.90;;;;;;21271961;27;20586;-78
2022/12/31 20:54:36;;;;;;;10.87;6.07;;;9.10;99.90;;;;;;21252994;27;20058;-78
2022/12/31 21:04:37;;;;;;;7.45;3.45;;;8.80;99.90;;;;;;21260976;27;20122;-78
2022/12/31 21:14:39;;;;;;;12.10;4.63;;;9.00;99.90;;;;;;21261513;27;20104;-79
2022/12/31 21:24:40;;;;;;;10.50;5.82;;;8.90;99.90;;;;;;21264119;27;20053;-79
2022/12/31 21:34:40;;;;;;;21.83;10.50;;;8.70;99.90;;;;;;21245740;27;20047;-78
2022/12/31 21:44:42;;;;;;;8.27;4.60;;;8.40;99.90;;;;;;21262013;27;20066;-78
2022/12/31 22:05:03;;;;;;;8.65;5.30;;;8.40;99.90;;;;;;21260840;27;20043;-78
2022/12/31 22:15:04;;;;;;;;;;;8.30;99.90;;;;;;21259669;27;20042;-78
2022/12/31 22:25:07;;;;;;;13.25;6.15;;;8.20;99.90;;;;;;21257756;27;20392;-77
2022/12/31 22:35:09;;;;;;;12.73;5.85;;;8.00;99.90;;;;;;21238344;27;20092;-77
2022/12/31 22:45:10;;;;;;;13.68;7.78;;;8.20;99.90;;;;;;21254961;27;20095;-78
2022/12/31 22:55:11;;;;;;;34.00;15.00;;;8.10;99.90;;;;;;21256677;27;20122;-78
2022/12/31 23:05:12;;;;;;;26.33;14.13;;;7.60;99.90;;;;;;21253981;27;20035;-79
2022/12/31 23:25:48;;;;;;;500.02;258.15;;;7.30;99.90;;;;;;21255067;27;19919;-79
2022/12/31 23:35:51;;;;;;;70.28;35.30;;;7.20;99.90;;;;;;21253953;27;20490;-78
2022/12/31 23:45:52;;;;;;;20.48;10.05;;;6.90;99.90;;;;;;21253263;27;20086;-79
2022/12/31 23:55:53;;;;;;;;;;;6.90;99.90;;;;;;21254307;27;20088;-78
